Time;durP1;ratioP1;P1;durP2;ratioP2;P2;SDS_P1;SDS_P2;PMS_P1;PMS_P2;Temp;Humidity;BMP_temperature;BMP_pressure;BME280_temperature;BME280_humidity;BME280_pressure;Samples;Min_cycle;Max_cycle;Signal;HPM_P1;HPM_P2
2023/04/05 00:02:00;;;;;;;7.82;7.18;;;;;;;3.74;74.56;94586.25;5042924;28;20674;-64
2023/04/05 00:04:29;;;;;;;8.38;7.68;;;;;;;3.73;74.88;94579.56;5033711;28;20200;-65
2023/04/05 00:06:56;;;;;;;9.07;8.27;;;;;;;3.76;75.16;94577.00;5032922;28;20207;-65
2023/04/05 00:09:23;;;;;;;9.53;8.73;;;;;;;3.63;76.22;94571.34;5032235;28;20200;-66
2023/04/05 00:11:49;;;;;;;8.93;8.13;;;;;;;3.82;75.39;94576.91;5032948;28;20234;-66
2023/04/05 00:14:16;;;;;;;8.77;8.07;;;;;;;3.68;74.86;94574.63;5032685;28;20238;-65
2023/04/05 00:16:45;;;;;;;7.95;7.20;;;;;;;3.64;75.13;94572.16;5032554;28;20235;-65
2023/04/05 00:19:12;;;;;;;7.55;7.05;;;;;;;3.66;74.96;94571.28;5032046;28;20257;-66
2023/04/05 00:21:39;;;;;;;8.65;7.95;;;;;;;3.67;75.08;94572.13;5032147;28;20225;-66
2023/04/05 00:24:14;;;;;;;8.57;7.87;;;;;;;3.53;75.56;94559.75;5032061;28;20203;-65
2023/04/05 00:26:41;;;;;;;7.88;7.15;;;;;;;3.63;75.60;94581.38;5031729;28;20227;-66
2023/04/05 00:29:08;;;;;;;7.50;6.93;;;;;;;3.66;75.55;94581.34;5020383;28;20297;-65
2023/04/05 00:31:35;;;;;;;7.82;7.18;;;;;;;3.53;75.63;94572.31;5031950;28;20204;-64
2023/04/05 00:34:04;;;;;;;7.60;6.97;;;;;;;3.59;75.26;94581.44;5020575;28;20200;-65
2023/04/05 00:36:31;;;;;;;6.63;6.07;;;;;;;3.48;74.75;94576.56;5043877;28;20242;-65
2023/04/05 00:38:58;;;;;;;6.40;5.85;;;;;;;3.53;75.78;94574.00;5019756;28;20196;-65
2023/04/05 00:41:24;;;;;;;6.17;5.77;;;;;;;3.53;75.48;94576.50;5031476;28;20239;-64
2023/04/05 00:43:51;;;;;;;6.85;6.22;;;;;;;3.53;75.55;94579.03;5020254;28;20274;-65
2023/04/05 00:46:18;;;;;;;6.57;5.95;;;;;;;3.50;75.21;94574.03;5031328;28;20214;-66
2023/04/05 00:48:45;;;;;;;6.38;5.88;;;;;;;3.49;74.94;94572.38;5032040;28;20231;-65
2023/04/05 00:51:14;;;;;;;6.78;6.25;;;;;;;3.40;75.19;94574.19;5031771;28;20242;-70
2023/04/05 00:53:41;;;;;;;6.65;6.18;;;;;;;3.42;75.70;94572.47;5032227;28;20703;-66
2023/04/05 00:56:09;;;;;;;6.25;5.75;;;;;;;3.50;75.25;94584.09;5031289;28;20210;-66
2023/04/05 00:58:35;;;;;;;7.22;6.55;;;;;;;3.40;75.78;94583.41;5032360;28;20207;-65
2023/04/05 01:01:13;;;;;;;7.60;6.35;;;;;;;3.55;75.69;94587.38;5031366;28;20235;-64
2023/04/05 01:03:44;;;;;;;6.45;5.72;;;;;;;3.49;75.26;94578.22;5031448;28;20585;-65
2023/04/05 01:06:22;;;;;;;6.57;6.07;;;;;;;3.52;74.89;94582.38;5030928;28;20567;-65
2023/04/05 01:08:56;;;;;;;5.78;5.38;;;;;;;3.50;75.26;94587.44;5031678;28;20207;-65
2023/04/05 01:11:25;;;;;;;6.67;6.07;;;;;;;3.53;75.25;94579.84;5018987;28;20705;-66
2023/04/05 01:13:58;;;;;;;6.10;5.60;;;;;;;3.65;75.09;94583.88;5031379;28;20215;-65
2023/04/05 01:16:25;;;;;;;5.65;5.20;;;;;;;3.58;74.49;94594.88;5030133;28;20639;-65
2023/04/05 01:18:55;;;;;;;5.30;4.90;;;;;;;3.51;74.98;94585.75;5031051;28;20239;-65
2023/04/05 01:22:12;;;;;;;5.83;5.43;;;;;;;3.52;74.09;94592.44;5031251;28;20207;-65
2023/04/05 01:24:51;;;;;;;4.75;4.45;;;;;;;3.58;74.29;94594.88;5022122;28;20257;-65
2023/04/05 01:27:22;;;;;;;5.05;4.75;;;;;;;3.62;73.92;94588.94;5030355;28;20247;-65
2023/04/05 01:29:56;;;;;;;5.25;4.95;;;;;;;3.52;73.93;94599.97;5030867;28;20673;-65
2023/04/05 01:32:50;;;;;;;5.18;4.78;;;;;;;3.40;74.58;94594.28;5030155;28;20233;-65
2023/04/05 01:35:22;;;;;;;5.37;4.97;;;;;;;3.39;74.90;94592.63;5033752;28;20235;-65
2023/04/05 01:37:55;;;;;;;5.80;5.30;;;;;;;3.53;74.92;94599.13;5039545;28;20229;-66
2023/04/05 01:40:23;;;;;;;5.13;4.83;;;;;;;3.47;74.15;94589.16;5030488;28;20685;-64
2023/04/05 01:42:49;;;;;;;4.55;4.25;;;;;;;3.49;74.47;94597.50;5030969;28;20258;-65
2023/04/05 01:45:18;;;;;;;5.43;5.13;;;;;;;3.54;74.41;94590.72;5029869;28;20204;-65
2023/04/05 01:47:44;;;;;;;4.80;4.50;;;;;;;3.61;73.81;94602.38;5030572;28;20243;-65
2023/04/05 01:50:11;;;;;;;5.40;5.10;;;;;;;3.61;74.46;94597.34;5030470;28;20249;-64
2023/04/05 01:52:38;;;;;;;5.18;4.68;;;;;;;3.65;73.53;94603.97;5030562;28;20254;-65
2023/04/05 01:55:05;;;;;;;4.30;4.00;;;;;;;3.71;73.91;94591.34;5030224;28;20203;-65
2023/04/05 01:57:32;;;;;;;4.70;4.43;;;;;;;3.76;73.07;94594.59;5030524;28;20250;-65
2023/04/05 01:59:58;;;;;;;4.38;4.07;;;;;;;3.80;72.32;94598.72;5030231;28;20637;-63
2023/04/05 02:02:26;;;;;;;4.30;4.00;;;;;;;3.62;72.77;94599.00;5030465;28;20223;-65
2023/04/05 02:04:53;;;;;;;3.55;3.35;;;;;;;3.59;73.41;94589.81;5030460;28;20269;-65
2023/04/05 02:07:20;;;;;;;4.15;3.88;;;;;;;3.58;72.94;94592.34;5029754;28;20759;-66
2023/04/05 02:09:47;;;;;;;4.80;4.20;;;;;;;3.68;73.14;94594.72;5018196;28;20235;-64
2023/04/05 02:12:13;;;;;;;3.83;3.63;;;;;;;3.71;72.71;94598.88;5029913;28;20763;-65
2023/04/05 02:14:40;;;;;;;4.50;4.20;;;;;;;3.74;72.78;94598.81;5018617;28;20240;-65
2023/04/05 02:17:07;;;;;;;4.00;3.70;;;;;;;3.81;71.57;94602.06;5029935;28;20261;-66
2023/04/05 02:19:39;;;;;;;4.07;3.80;;;;;;;3.53;72.88;94610.00;5030249;28;20204;-66
2023/04/05 02:22:06;;;;;;;4.50;4.20;;;;;;;3.52;73.05;94597.44;5029664;28;20255;-66
2023/04/05 02:24:33;;;;;;;4.13;3.77;;;;;;;3.51;73.64;94601.66;5030506;28;20243;-65
2023/04/05 02:27:00;;;;;;;3.50;3.30;;;;;;;3.55;72.87;94599.94;5029204;28;20259;-66
2023/04/05 02:29:26;;;;;;;4.13;3.83;;;;;;;3.60;73.49;94605.72;5030329;28;20204;-65
2023/04/05 02:31:53;;;;;;;4.10;3.80;;;;;;;3.53;72.68;94606.66;5030023;28;20226;-66
2023/04/05 02:34:21;;;;;;;4.88;4.50;;;;;;;3.48;73.78;94610.91;5030290;28;20195;-66
2023/04/05 02:36:51;;;;;;;4.43;4.03;;;;;;;3.38;74.30;94603.50;5041694;28;20199;-65
2023/04/05 02:39:18;;;;;;;4.50;4.30;;;;;;;3.45;74.48;94608.47;5030269;28;20228;-65
2023/04/05 02:41:45;;;;;;;3.92;3.63;;;;;;;3.59;73.43;94601.56;5029968;28;20227;-66
2023/04/05 02:44:12;;;;;;;4.50;4.20;;;;;;;3.58;73.41;94598.22;5029948;28;20241;-65
2023/04/05 02:46:39;;;;;;;4.00;3.80;;;;;;;3.56;74.24;94599.91;5029655;28;20195;-65
2023/04/05 02:49:06;;;;;;;3.85;3.53;;;;;;;3.54;73.93;94601.59;5030002;28;20210;-65
2023/04/05 02:51:33;;;;;;;3.90;3.70;;;;;;;3.53;73.15;94604.13;5029579;28;20639;-66
2023/04/05 02:54:02;;;;;;;4.20;4.00;;;;;;;3.58;73.85;94592.34;5029980;28;20199;-65
2023/04/05 02:56:29;;;;;;;3.83;3.53;;;;;;;3.61;73.12;94592.31;5029670;28;20199;-65
2023/04/05 02:58:56;;;;;;;3.80;3.55;;;;;;;3.59;73.11;94594.00;5029919;28;20693;-67
2023/04/05 03:01:23;;;;;;;4.28;3.97;;;;;;;3.62;72.84;94592.28;5029526;28;20262;-66
2023/04/05 03:03:50;;;;;;;4.32;4.13;;;;;;;3.65;73.16;94596.44;5030668;28;20215;-66
2023/04/05 03:06:17;;;;;;;5.15;4.85;;;;;;;3.68;74.06;94597.25;5030256;28;20203;-65
2023/04/05 03:08:46;;;;;;;4.45;4.05;;;;;;;3.73;73.61;94595.47;5030173;28;20281;-65
2023/04/05 03:11:14;;;;;;;4.78;4.47;;;;;;;3.49;73.47;94602.53;5030101;28;20270;-65
2023/04/05 03:13:41;;;;;;;4.15;3.95;;;;;;;3.33;74.99;94597.72;5030299;28;20223;-64
2023/04/05 03:16:08;;;;;;;4.30;4.00;;;;;;;3.29;75.07;94602.78;5029757;28;20219;-65
2023/04/05 03:18:35;;;;;;;4.37;4.00;;;;;;;3.28;74.31;94601.97;5030058;28;20247;-65
2023/04/05 03:21:03;;;;;;;4.45;4.15;;;;;;;3.25;75.26;94604.50;5029933;28;20200;-65
2023/04/05 03:23:30;;;;;;;3.97;3.78;;;;;;;3.32;74.95;94596.06;5030071;28;20246;-65
2023/04/05 03:25:59;;;;;;;4.55;4.25;;;;;;;3.27;74.49;94596.94;5028448;28;20670;-67
2023/04/05 03:28:28;;;;;;;4.05;3.85;;;;;;;3.30;75.16;94594.41;5029563;28;20309;-65
2023/04/05 03:30:54;;;;;;;4.28;4.07;;;;;;;3.35;74.69;94591.00;5029878;28;20244;-67
2023/04/05 03:33:21;;;;;;;4.03;3.72;;;;;;;3.32;75.21;94600.25;5030284;28;20265;-65
2023/04/05 03:35:48;;;;;;;4.38;4.13;;;;;;;3.34;75.16;94599.38;5037074;28;20318;-67
2023/04/05 03:38:15;;;;;;;4.00;3.58;;;;;;;3.35;75.04;94595.19;5034992;28;20301;-65
2023/04/05 03:40:42;;;;;;;3.97;3.78;;;;;;;3.35;74.77;94596.00;5034010;28;20238;-65
2023/04/05 03:43:09;;;;;;;4.03;3.72;;;;;;;3.41;73.92;94595.94;5032807;28;20227;-66
2023/04/05 03:45:37;;;;;;;3.55;3.35;;;;;;;3.37;74.50;94604.34;5033725;28;20200;-65
2023/04/05 03:48:04;;;;;;;4.15;3.95;;;;;;;3.38;74.35;94606.03;5033430;28;20227;-66
2023/04/05 03:50:31;;;;;;;4.07;3.88;;;;;;;3.46;74.50;94615.16;5033846;28;20297;-65
2023/04/05 03:52:58;;;;;;;4.25;3.95;;;;;;;3.54;74.77;94620.88;5032980;28;20207;-65
2023/04/05 03:55:25;;;;;;;4.03;3.83;;;;;;;3.60;74.11;94615.78;5033437;28;20330;-66
2023/04/05 03:57:52;;;;;;;4.00;3.75;;;;;;;3.48;75.62;94618.44;5033159;28;20296;-67
2023/04/05 04:00:19;;;;;;;4.05;3.85;;;;;;;3.43;74.92;94621.03;5033108;28;20733;-66
2023/04/05 04:02:48;;;;;;;3.97;3.78;;;;;;;3.44;74.91;94620.19;5032714;28;20236;-68
2023/04/05 04:05:16;;;;;;;4.10;3.88;;;;;;;3.53;74.88;94626.75;5033352;28;20250;-68
2023/04/05 04:07:44;;;;;;;6.82;4.07;;;;;;;3.56;75.38;94619.19;5032947;28;20199;-66
2023/04/05 04:10:14;;;;;;;3.33;3.13;;;;;;;3.55;75.05;94630.06;5033374;28;20207;-65
2023/04/05 04:12:40;;;;;;;3.65;3.45;;;;;;;3.61;74.94;94625.81;5032844;28;20192;-65
2023/04/05 04:15:08;;;;;;;3.50;3.30;;;;;;;3.60;74.67;94620.78;5033032;28;20684;-65
2023/04/05 04:17:36;;;;;;;4.03;3.83;;;;;;;3.68;74.65;94624.03;5032587;28;20270;-66
2023/04/05 04:20:09;;;;;;;3.95;3.65;;;;;;;3.65;74.96;94624.09;5032888;28;20257;-65
2023/04/05 04:22:37;;;;;;;3.72;3.53;;;;;;;3.67;74.79;94629.91;5032553;28;20210;-67
2023/04/05 04:25:08;;;;;;;4.25;3.95;;;;;;;3.74;75.69;94628.97;5032635;28;20707;-66
2023/04/05 04:27:38;;;;;;;6.88;5.93;;;;;;;3.74;75.55;94628.97;5020706;28;20263;-67
2023/04/05 04:30:09;;;;;;;4.88;4.57;;;;;;;3.61;76.35;94622.47;5032454;28;20633;-66
2023/04/05 04:32:53;;;;;;;4.85;4.55;;;;;;;3.63;76.58;94635.84;5032919;28;20208;-66
2023/04/05 04:35:23;;;;;;;4.82;4.53;;;;;;;3.86;75.76;94635.50;5035313;28;20310;-67
2023/04/05 04:37:53;;;;;;;5.10;4.70;;;;;;;3.85;75.43;94627.13;5041288;28;20226;-66
2023/04/05 04:40:21;;;;;;;4.97;4.53;;;;;;;3.85;75.36;94621.28;5032059;28;20203;-65
2023/04/05 04:42:49;;;;;;;4.90;4.50;;;;;;;3.88;75.02;94632.13;5032340;28;20794;-66
2023/04/05 04:45:18;;;;;;;4.28;3.95;;;;;;;3.73;75.58;94638.19;5031515;28;20778;-66
2023/04/05 04:47:45;;;;;;;3.42;3.22;;;;;;;3.89;74.57;94638.81;5032176;28;20755;-66
2023/04/05 04:50:13;;;;;;;3.47;3.17;;;;;;;3.98;74.73;94637.81;5031285;28;20207;-66
2023/04/05 04:52:41;;;;;;;2.53;2.43;;;;;;;4.01;74.51;94637.78;5032072;28;20208;-66
2023/04/05 04:55:12;;;;;;;3.00;2.80;;;;;;;4.04;73.62;94638.56;5031846;28;20232;-66
2023/04/05 04:57:39;;;;;;;2.60;2.50;;;;;;;4.14;73.88;94644.28;5032074;28;20200;-66
2023/04/05 05:00:12;;;;;;;2.05;1.95;;;;;;;4.06;74.14;94641.06;5020737;28;20203;-68
2023/04/05 05:02:39;;;;;;;2.85;2.65;;;;;;;3.97;74.02;94641.19;5031301;28;20243;-67
2023/04/05 05:05:06;;;;;;;2.40;2.20;;;;;;;4.04;73.30;94633.53;5032260;28;20581;-67
2023/04/05 05:07:33;;;;;;;2.20;2.10;;;;;;;4.00;72.95;94636.94;5031700;28;20203;-67
2023/04/05 05:10:01;;;;;;;3.28;3.05;;;;;;;4.08;73.52;94635.16;5032091;28;20207;-67
2023/04/05 05:12:28;;;;;;;2.80;2.60;;;;;;;4.15;73.24;94640.09;5032011;28;20261;-68
2023/04/05 05:14:55;;;;;;;3.13;2.85;;;;;;;4.29;71.80;94639.00;5023407;28;20231;-67
2023/04/05 05:17:22;;;;;;;4.55;3.80;;;;;;;4.29;73.01;94633.16;5031348;28;20202;-66
2023/04/05 05:19:49;;;;;;;2.40;2.30;;;;;;;4.43;71.12;94642.16;5038478;28;20719;-67
2023/04/05 05:22:16;;;;;;;3.70;3.40;;;;;;;4.32;71.91;94640.66;5031675;28;20954;-65
2023/04/05 05:24:43;;;;;;;1.75;1.65;;;;;;;4.15;71.36;94652.66;5031065;28;20720;-67
2023/04/05 05:27:11;;;;;;;2.60;2.40;;;;;;;4.17;71.42;94654.31;5031422;28;20251;-66
2023/04/05 05:29:38;;;;;;;2.58;2.38;;;;;;;4.19;71.60;94656.81;5031095;28;20246;-67
2023/04/05 05:32:06;;;;;;;4.70;4.25;;;;;;;4.15;72.48;94656.03;5031416;28;20648;-67
2023/04/05 05:34:33;;;;;;;3.00;2.80;;;;;;;4.25;71.84;94651.66;5030711;28;20585;-67
2023/04/05 05:37:00;;;;;;;2.92;2.72;;;;;;;4.55;72.04;94651.16;5043188;28;20230;-66
2023/04/05 05:39:27;;;;;;;2.63;2.53;;;;;;;4.79;71.09;94650.72;5031171;28;20295;-65
2023/04/05 05:41:53;;;;;;;1.98;1.88;;;;;;;5.09;69.68;94658.59;5030965;28;20273;-68
2023/04/05 05:44:21;;;;;;;2.15;2.05;;;;;;;5.18;68.54;94643.31;5030980;28;20219;-67
2023/04/05 05:46:48;;;;;;;2.13;2.03;;;;;;;5.23;68.21;94645.72;5030618;28;20208;-67
2023/04/05 05:49:15;;;;;;;1.85;1.75;;;;;;;5.43;67.80;94641.13;5031205;28;20235;-68
2023/04/05 05:51:41;;;;;;;2.58;2.38;;;;;;;5.56;66.22;94639.16;5030787;28;20705;-66
2023/04/05 05:54:08;;;;;;;2.17;2.00;;;;;;;5.61;65.64;94638.22;5030695;28;20294;-68
2023/04/05 05:56:35;;;;;;;2.40;2.30;;;;;;;5.62;66.47;94639.03;5030509;28;20211;-67
2023/04/05 05:59:01;;;;;;;2.83;2.63;;;;;;;5.81;64.77;94641.13;5030759;28;20261;-67
2023/04/05 06:01:29;;;;;;;2.25;2.15;;;;;;;5.85;64.26;94639.38;5029908;28;20716;-67
2023/04/05 06:03:56;;;;;;;2.05;1.95;;;;;;;5.83;64.52;94643.63;5030611;28;20262;-66
2023/04/05 06:06:23;;;;;;;2.22;2.13;;;;;;;5.73;65.04;94647.19;5030348;28;20258;-66
2023/04/05 06:08:50;;;;;;;2.40;2.30;;;;;;;5.66;65.23;94646.50;5030371;28;20250;-68
2023/04/05 06:11:18;;;;;;;2.33;2.22;;;;;;;6.01;65.19;94639.88;5030537;28;20635;-67
2023/04/05 06:13:45;;;;;;;1.80;1.70;;;;;;;6.00;63.61;94641.56;5030094;28;20231;-68
2023/04/05 06:16:11;;;;;;;1.75;1.67;;;;;;;5.97;63.41;94630.72;5030744;28;20253;-69
2023/04/05 06:18:40;;;;;;;1.90;1.80;;;;;;;6.09;62.95;94654.00;5030722;28;20235;-68
2023/04/05 06:21:06;;;;;;;1.92;1.83;;;;;;;6.15;63.63;94653.03;5019309;28;20204;-66
2023/04/05 06:23:33;;;;;;;10.20;7.80;;;;;;;6.38;63.97;94657.53;5030174;28;20350;-66
2023/04/05 06:26:00;;;;;;;2.95;2.50;;;;;;;6.39;62.24;94654.13;5029994;28;20204;-66
2023/04/05 06:28:26;;;;;;;4.35;1.65;;;;;;;6.38;62.27;94657.53;5029988;28;20227;-68
2023/04/05 06:30:54;;;;;;;2.05;1.95;;;;;;;6.32;62.78;94662.72;5030463;28;20227;-70
2023/04/05 06:33:20;;;;;;;2.08;1.98;;;;;;;6.43;61.84;94655.72;5030441;28;20199;-69
2023/04/05 06:35:48;;;;;;;3.15;2.20;;;;;;;6.58;61.77;94654.50;5037145;28;20249;-66
2023/04/05 06:38:15;;;;;;;2.20;2.00;;;;;;;6.77;61.69;94669.16;5034793;28;20243;-67
2023/04/05 06:40:42;;;;;;;2.22;2.13;;;;;;;6.68;61.71;94671.91;5030417;28;20631;-69
2023/04/05 06:43:09;;;;;;;2.10;2.00;;;;;;;6.78;61.66;94663.25;5030086;28;20242;-69
2023/04/05 06:45:36;;;;;;;2.67;2.47;;;;;;;6.86;61.20;94663.06;5030095;28;20216;-67
2023/04/05 06:48:03;;;;;;;3.95;3.50;;;;;;;7.19;60.46;94676.50;5030054;28;20257;-67
2023/04/05 06:50:30;;;;;;;3.58;2.45;;;;;;;7.75;59.49;94674.94;5030480;28;20234;-68
2023/04/05 06:52:58;;;;;;;2.75;2.15;;;;;;;8.72;55.82;94681.25;5030059;28;20270;-67
2023/04/05 06:55:24;;;;;;;1.63;1.52;;;;;;;9.02;54.34;94673.53;5030357;28;20246;-69
2023/04/05 06:57:51;;;;;;;1.52;1.42;;;;;;;8.95;53.81;94684.72;5030096;28;20266;-66
2023/04/05 07:00:18;;;;;;;5.18;3.42;;;;;;;8.97;53.77;94681.28;5030434;28;20199;-67
2023/04/05 07:02:45;;;;;;;1.85;1.40;;;;;;;8.70;54.39;94688.06;5030104;28;20207;-68
2023/04/05 07:05:12;;;;;;;2.08;1.50;;;;;;;8.53;54.08;94695.38;5028154;28;20672;-67
2023/04/05 07:07:39;;;;;;;1.80;1.65;;;;;;;8.32;54.96;94701.09;5029330;28;20583;-68
2023/04/05 07:10:09;;;;;;;1.88;1.77;;;;;;;8.13;54.81;94706.72;5030166;28;20210;-68
2023/04/05 07:12:36;;;;;;;2.50;2.17;;;;;;;8.08;54.94;94702.66;5030753;28;20199;-69
2023/04/05 07:15:03;;;;;;;3.25;3.03;;;;;;;7.97;55.64;94697.91;5033978;28;20235;-66
2023/04/05 07:17:29;;;;;;;1.88;1.73;;;;;;;7.85;57.22;94700.78;5035540;28;20207;-68
2023/04/05 07:19:56;;;;;;;2.00;1.85;;;;;;;7.80;56.46;94712.75;5033258;28;20217;-68
2023/04/05 07:22:23;;;;;;;1.92;1.83;;;;;;;7.69;56.49;94714.72;5023715;28;20627;-67
2023/04/05 07:24:51;;;;;;;1.35;1.35;;;;;;;7.69;57.32;94707.97;5033431;28;20739;-67
2023/04/05 07:27:19;;;;;;;1.92;1.83;;;;;;;7.50;56.28;94715.25;5033235;28;20255;-68
2023/04/05 07:29:47;;;;;;;2.20;1.52;;;;;;;7.24;58.23;94722.69;5026248;28;20246;-67
2023/04/05 07:32:13;;;;;;;2.17;1.42;;;;;;;7.27;58.51;94724.31;5033618;28;20200;-68
2023/04/05 07:34:40;;;;;;;1.70;1.60;;;;;;;7.31;57.60;94710.72;5033658;28;20267;-67
2023/04/05 07:37:07;;;;;;;2.88;2.60;;;;;;;7.29;58.20;94710.78;5046013;28;20238;-68
2023/04/05 07:39:34;;;;;;;2.70;1.50;;;;;;;7.31;57.79;94715.78;5033723;28;20294;-67
2023/04/05 07:42:01;;;;;;;2.15;1.98;;;;;;;7.34;57.74;94714.00;5033388;28;20627;-67
2023/04/05 07:44:29;;;;;;;1.83;1.73;;;;;;;7.54;58.27;94720.22;5033169;28;20793;-66
2023/04/05 07:46:56;;;;;;;7.68;2.03;;;;;;;7.61;57.68;94711.59;5033449;28;20231;-69
2023/04/05 07:49:26;;;;;;;2.65;2.17;;;;;;;7.61;57.33;94725.09;5033651;28;20269;-65
2023/04/05 07:51:54;;;;;;;3.10;2.40;;;;;;;7.55;57.50;94732.81;5033476;28;20199;-67
2023/04/05 07:54:21;;;;;;;3.53;3.13;;;;;;;7.55;57.45;94737.88;5033567;28;20204;-67
2023/04/05 07:56:49;;;;;;;2.60;2.40;;;;;;;7.53;57.83;94742.16;5033380;28;20239;-67
2023/04/05 07:59:16;;;;;;;2.50;2.30;;;;;;;7.50;57.30;94745.59;5032852;28;20196;-68
2023/04/05 08:01:44;;;;;;;2.35;1.50;;;;;;;7.30;57.06;94746.97;5032774;28;20711;-69
2023/04/05 08:04:11;;;;;;;2.25;2.00;;;;;;;7.10;57.98;94744.97;5032762;28;20259;-67
2023/04/05 08:06:38;;;;;;;2.47;2.20;;;;;;;7.11;58.57;94747.47;5033170;28;20200;-67
2023/04/05 08:09:07;;;;;;;2.03;1.80;;;;;;;7.10;58.65;94739.91;5033204;28;20274;-69
2023/04/05 08:11:33;;;;;;;1.60;1.20;;;;;;;6.77;58.89;94742.41;5033188;28;20211;-67
2023/04/05 08:14:00;;;;;;;1.75;1.65;;;;;;;6.78;59.23;94744.06;5032557;28;20227;-66
2023/04/05 08:16:27;;;;;;;3.85;2.47;;;;;;;6.86;58.58;94743.88;5033036;28;20254;-68
2023/04/05 08:18:55;;;;;;;1.63;1.52;;;;;;;6.72;58.90;94756.81;5032490;28;20216;-67
2023/04/05 08:21:22;;;;;;;1.70;1.60;;;;;;;6.70;59.34;94761.06;5032827;28;20249;-69
2023/04/05 08:23:49;;;;;;;1.77;1.67;;;;;;;6.58;59.79;94763.91;5032417;28;20242;-65
2023/04/05 08:26:16;;;;;;;1.65;1.58;;;;;;;6.49;59.90;94761.56;5032445;28;20218;-65
2023/04/05 08:28:43;;;;;;;1.80;1.70;;;;;;;6.39;60.84;94765.19;5032872;28;20640;-67
2023/04/05 08:31:10;;;;;;;1.30;1.30;;;;;;;6.62;60.18;94762.97;5032503;28;20681;-67
2023/04/05 08:33:37;;;;;;;1.67;1.58;;;;;;;6.73;59.63;94758.47;5032495;28;20207;-67
2023/04/05 08:36:07;;;;;;;1.30;1.30;;;;;;;6.47;60.04;94748.16;5041451;28;20230;-68
2023/04/05 08:38:34;;;;;;;0.90;0.90;;;;;;;6.50;60.77;94765.75;5034786;28;20196;-68
2023/04/05 08:41:08;;;;;;;1.83;1.73;;;;;;;6.65;60.27;94765.44;5032354;28;20287;-68
2023/04/05 08:43:47;;;;;;;2.15;1.40;;;;;;;6.78;59.78;94773.53;5032420;28;20199;-67
2023/04/05 08:46:16;;;;;;;1.50;1.50;;;;;;;6.73;58.89;94772.81;5031911;28;20681;-67
2023/04/05 08:48:42;;;;;;;1.75;1.40;;;;;;;6.81;59.14;94764.19;5032371;28;20718;-67
2023/04/05 08:51:10;;;;;;;1.30;1.30;;;;;;;6.85;59.41;94766.66;5032076;28;20261;-68
2023/04/05 08:53:37;;;;;;;1.77;1.58;;;;;;;6.80;60.13;94771.81;5032428;28;20208;-67
2023/04/05 08:56:04;;;;;;;3.40;1.70;;;;;;;7.09;60.23;94776.16;5031987;28;20266;-68
2023/04/05 08:58:33;;;;;;;1.45;1.45;;;;;;;7.38;60.84;94772.91;5032329;28;20212;-67
2023/04/05 09:01:00;;;;;;;1.80;1.70;;;;;;;7.51;60.19;94776.75;5032226;28;20223;-66
2023/04/05 09:03:34;;;;;;;1.95;1.63;;;;;;;7.54;59.09;94783.44;5032199;28;20204;-67
2023/04/05 09:06:02;;;;;;;1.40;1.40;;;;;;;7.55;58.66;94778.34;5031684;28;20251;-67
2023/04/05 09:08:31;;;;;;;1.48;1.40;;;;;;;7.69;57.39;94780.50;5032062;28;20265;-66
2023/04/05 09:10:58;;;;;;;1.42;1.40;;;;;;;7.74;57.18;94788.78;5031278;28;20227;-68
2023/04/05 09:13:25;;;;;;;2.22;2.13;;;;;;;7.79;57.80;94786.97;5032351;28;20204;-68
2023/04/05 09:15:52;;;;;;;3.10;2.90;;;;;;;7.80;57.99;94789.47;5031623;28;20192;-67
2023/04/05 09:18:19;;;;;;;1.40;1.40;;;;;;;8.04;57.25;94797.25;5031856;28;20227;-67
2023/04/05 09:20:45;;;;;;;2.15;2.05;;;;;;;8.11;56.91;94794.50;5031711;28;20207;-67
2023/04/05 09:23:12;;;;;;;1.30;1.30;;;;;;;8.35;56.78;94794.72;5031978;28;20265;-67
2023/04/05 09:25:42;;;;;;;1.70;1.60;;;;;;;8.71;55.04;94791.06;5031311;28;20251;-68
2023/04/05 09:28:09;;;;;;;1.30;1.30;;;;;;;8.57;54.36;94788.13;5031506;28;20224;-68
2023/04/05 09:30:37;;;;;;;1.80;1.70;;;;;;;8.43;54.50;94796.13;5031557;28;20208;-66
2023/04/05 09:33:05;;;;;;;1.75;1.65;;;;;;;8.78;54.02;94779.88;5031381;28;20681;-67
2023/04/05 09:35:32;;;;;;;1.55;1.48;;;;;;;8.82;53.29;94781.44;5035726;28;20235;-68
2023/04/05 09:38:00;;;;;;;1.77;1.67;;;;;;;8.59;53.22;94790.63;5037548;28;20208;-66
2023/04/05 09:40:43;;;;;;;1.48;1.40;;;;;;;8.35;54.30;94787.09;5030923;28;21058;-68
2023/04/05 09:43:10;;;;;;;2.30;1.83;;;;;;;8.24;53.50;94778.94;5031012;28;20638;-67
2023/04/05 09:45:41;;;;;;;1.90;1.80;;;;;;;8.11;54.98;94781.84;5031502;28;20224;-67
2023/04/05 09:48:09;;;;;;;2.40;2.30;;;;;;;8.43;54.45;94775.84;5030951;28;21616;-68
2023/04/05 09:50:37;;;;;;;2.30;2.20;;;;;;;8.48;53.71;94775.72;5030983;28;20207;-66
2023/04/05 09:53:09;;;;;;;1.45;1.45;;;;;;;8.28;53.59;94775.47;5031330;28;20210;-67
2023/04/05 09:55:36;;;;;;;2.35;2.25;;;;;;;8.25;52.72;94778.09;5031135;28;20203;-69
2023/04/05 09:58:05;;;;;;;2.53;2.42;;;;;;;8.10;53.48;94782.72;5030572;28;20235;-66
2023/04/05 10:00:32;;;;;;;2.50;2.40;;;;;;;7.87;54.10;94774.13;5030899;28;20235;-68
2023/04/05 10:02:58;;;;;;;2.25;2.15;;;;;;;7.78;54.24;94781.09;5030482;28;20204;-66
2023/04/05 10:05:27;;;;;;;2.40;2.30;;;;;;;7.88;53.59;94785.91;5030983;28;20669;-68
2023/04/05 10:07:56;;;;;;;2.90;2.60;;;;;;;7.49;53.85;94789.44;5030250;28;20234;-67
2023/04/05 10:10:23;;;;;;;2.95;2.75;;;;;;;7.61;53.46;94787.47;5032413;28;20200;-70
2023/04/05 10:12:51;;;;;;;2.85;2.65;;;;;;;7.72;53.31;94786.28;5030313;28;20196;-67
2023/04/05 10:15:19;;;;;;;3.58;2.70;;;;;;;8.11;52.86;94791.97;5030751;28;20589;-67
2023/04/05 10:17:50;;;;;;;3.22;2.92;;;;;;;8.41;52.43;94785.19;5029886;28;20265;-68
2023/04/05 10:20:18;;;;;;;2.92;2.83;;;;;;;8.85;50.35;94783.88;5030764;28;20208;-67
2023/04/05 10:22:57;;;;;;;2.97;2.78;;;;;;;9.88;48.00;94779.59;5030756;28;20199;-67
2023/04/05 10:25:31;;;;;;;3.15;2.95;;;;;;;10.19;47.52;94773.41;5030341;28;20258;-68
2023/04/05 10:28:05;;;;;;;2.90;2.67;;;;;;;10.01;47.28;94779.13;5030076;28;20657;-66
2023/04/05 10:30:39;;;;;;;3.22;3.03;;;;;;;9.40;48.31;94782.06;5030201;28;20207;-67
2023/04/05 10:33:13;;;;;;;5.85;5.35;;;;;;;9.02;49.69;94790.09;5030524;28;20208;-68
2023/04/05 10:35:55;;;;;;;3.72;3.53;;;;;;;8.87;50.27;94781.28;5036173;28;20280;-67
2023/04/05 10:38:25;;;;;;;4.30;3.90;;;;;;;8.86;50.38;94793.13;5034084;28;20207;-67
2023/04/05 10:40:57;;;;;;;3.40;3.20;;;;;;;8.98;50.25;94784.31;5030462;28;20209;-65
2023/04/05 10:43:26;;;;;;;3.22;2.97;;;;;;;9.31;50.22;94777.31;5030207;28;20265;-68
2023/04/05 10:45:55;;;;;;;3.53;3.33;;;;;;;9.41;49.60;94783.72;5030101;28;20223;-67
2023/04/05 10:48:33;;;;;;;3.17;2.97;;;;;;;9.61;48.47;94778.00;5030066;28;20226;-67
2023/04/05 10:51:00;;;;;;;3.00;2.90;;;;;;;9.76;47.57;94780.00;5030341;28;20239;-67
2023/04/05 10:53:27;;;;;;;3.03;2.83;;;;;;;9.81;47.83;94784.91;5030129;28;20227;-68
2023/04/05 10:55:55;;;;;;;4.78;4.38;;;;;;;9.21;48.08;94792.00;5030305;28;20200;-66
2023/04/05 10:58:24;;;;;;;9.00;7.13;;;;;;;9.01;49.68;94793.53;5030222;28;20262;-67
2023/04/05 11:00:52;;;;;;;49.50;25.83;;;;;;;8.40;51.32;94795.41;5030067;28;20207;-65
2023/04/05 11:03:47;;;;;;;4.05;3.80;;;;;;;8.18;50.49;94790.91;5030064;28;20235;-67
2023/04/05 11:06:22;;;;;;;3.65;3.38;;;;;;;8.50;51.13;94802.66;5033939;28;20268;-67
2023/04/05 11:08:52;;;;;;;3.88;3.42;;;;;;;8.59;50.65;94801.56;5034985;28;20230;-66
2023/04/05 11:11:22;;;;;;;4.53;4.22;;;;;;;8.45;51.08;94796.06;5018289;28;20250;-67
2023/04/05 11:13:50;;;;;;;3.83;3.63;;;;;;;8.25;51.26;94795.81;5030056;28;20282;-65
2023/04/05 11:16:17;;;;;;;5.00;4.60;;;;;;;8.32;51.76;94797.28;5030017;28;20685;-66
2023/04/05 11:18:46;;;;;;;4.53;4.00;;;;;;;8.48;50.94;94794.28;5029944;28;20257;-67
2023/04/05 11:21:20;;;;;;;4.78;3.95;;;;;;;8.67;51.30;94786.13;5029829;28;20610;-64
2023/04/05 11:24:02;;;;;;;3.33;3.10;;;;;;;8.45;50.60;94798.59;5029790;28;20257;-66
2023/04/05 11:26:33;;;;;;;3.80;3.47;;;;;;;8.28;51.63;94799.06;5029754;28;20235;-67
2023/04/05 11:29:00;;;;;;;4.38;4.07;;;;;;;8.32;50.94;94774.50;5029081;28;20286;-65
2023/04/05 11:31:27;;;;;;;4.13;3.83;;;;;;;8.33;50.94;94788.84;5029747;28;20204;-65
2023/04/05 11:33:57;;;;;;;5.32;3.45;;;;;;;8.07;51.35;94785.34;5029811;28;20251;-66
2023/04/05 11:36:33;;;;;;;3.42;3.22;;;;;;;8.06;51.70;94771.03;5041509;28;20267;-67
2023/04/05 11:39:25;;;;;;;3.35;3.13;;;;;;;7.99;51.25;94789.78;5017315;28;20765;-66
2023/04/05 11:42:00;;;;;;;3.70;3.50;;;;;;;7.96;51.67;94792.38;5019255;28;20212;-67
2023/04/05 11:44:27;;;;;;;3.60;3.40;;;;;;;8.07;51.17;94794.63;5029468;28;20210;-67
2023/04/05 11:46:54;;;;;;;3.65;3.45;;;;;;;8.33;51.02;94788.84;5029065;28;20215;-66
2023/04/05 11:49:23;;;;;;;3.70;3.50;;;;;;;8.27;50.94;94791.53;5029407;28;20589;-67